createdAt,value
2023-03-22T00:00:20.158Z,100.00
2023-03-22T00:02:50.535Z,100.00
2023-03-22T00:05:19.298Z,100.00
2023-03-22T00:07:52.436Z,100.00
2023-03-22T00:10:24.258Z,100.00
2023-03-22T00:12:53.524Z,100.00
2023-03-22T00:15:27.328Z,100.00
2023-03-22T00:17:57.180Z,100.00
2023-03-22T00:20:27.681Z,100.00
2023-03-22T00:23:00.579Z,100.00
2023-03-22T00:25:29.364Z,100.00
2023-03-22T00:28:01.870Z,100.00
2023-03-22T00:30:34.299Z,100.00
2023-03-22T00:36:08.373Z,100.00
2023-03-22T00:38:44.936Z,100.00
2023-03-22T00:41:21.695Z,100.00
2023-03-22T00:44:27.539Z,100.00
2023-03-22T00:47:18.810Z,100.00
2023-03-22T00:49:50.640Z,100.00
2023-03-22T00:52:19.410Z,100.00
2023-03-22T00:54:50.210Z,100.00
2023-03-22T00:57:17.057Z,100.00
2023-03-22T00:59:56.449Z,100.00
2023-03-22T01:02:23.318Z,100.00
2023-03-22T01:04:53.020Z,100.00
2023-03-22T01:07:34.841Z,100.00
2023-03-22T01:10:11.821Z,100.00
2023-03-22T01:12:39.307Z,100.00
2023-03-22T01:15:09.535Z,100.00
2023-03-22T01:17:43.813Z,100.00
2023-03-22T01:20:17.232Z,100.00
2023-03-22T01:22:53.451Z,100.00
2023-03-22T01:25:24.762Z,100.00
2023-03-22T01:27:52.680Z,100.00
2023-03-22T01:30:23.893Z,100.00
2023-03-22T01:32:50.590Z,100.00
2023-03-22T01:35:23.416Z,100.00
2023-03-22T01:37:50.393Z,100.00
2023-03-22T01:40:17.451Z,100.00
2023-03-22T01:42:44.348Z,100.00
2023-03-22T01:48:35.190Z,100.00
2023-03-22T01:51:19.568Z,100.00
2023-03-22T01:53:53.045Z,100.00
2023-03-22T01:56:22.512Z,100.00
2023-03-22T01:58:50.631Z,100.00
2023-03-22T02:01:18.498Z,100.00
2023-03-22T02:04:12.375Z,100.00
2023-03-22T02:06:47.853Z,100.00
2023-03-22T02:09:19.917Z,100.00
2023-03-22T02:11:54.112Z,100.00
2023-03-22T02:14:42.188Z,100.00
2023-03-22T02:17:45.502Z,100.00
2023-03-22T02:20:21.246Z,100.00
2023-03-22T02:22:59.841Z,100.00
2023-03-22T02:26:05.364Z,100.00
2023-03-22T02:28:55.970Z,100.00
2023-03-22T02:31:44.085Z,100.00
2023-03-22T02:34:57.186Z,100.00
2023-03-22T02:37:44.180Z,100.00
2023-03-22T02:43:33.840Z,100.00
2023-03-22T02:46:22.946Z,100.00
2023-03-22T02:49:18.811Z,100.00
2023-03-22T02:52:19.078Z,100.00
2023-03-22T02:55:12.612Z,100.00
2023-03-22T02:57:49.235Z,100.00
2023-03-22T03:00:28.699Z,100.00
2023-03-22T03:03:05.496Z,100.00
2023-03-22T03:05:34.078Z,100.00
2023-03-22T03:08:11.176Z,100.00
2023-03-22T03:10:52.352Z,100.00
2023-03-22T03:13:20.528Z,100.00
2023-03-22T03:15:56.405Z,100.00
2023-03-22T03:19:18.286Z,100.00
2023-03-22T03:21:55.596Z,100.00
2023-03-22T03:24:52.436Z,100.00
2023-03-22T03:27:36.102Z,100.00
2023-03-22T03:30:22.438Z,100.00
2023-03-22T03:32:56.475Z,100.00
2023-03-22T03:35:28.344Z,100.00
2023-03-22T03:38:08.187Z,100.00
2023-03-22T03:40:45.786Z,100.00
2023-03-22T03:43:32.025Z,100.00
2023-03-22T03:46:07.519Z,100.00
2023-03-22T03:48:40.020Z,100.00
2023-03-22T03:51:07.703Z,100.00
2023-03-22T03:53:35.157Z,100.00
2023-03-22T03:56:05.809Z,100.00
2023-03-22T03:58:48.447Z,100.00
2023-03-22T04:01:22.876Z,100.00
2023-03-22T04:03:58.322Z,100.00
2023-03-22T04:06:29.893Z,100.00
2023-03-22T04:08:58.136Z,100.00
2023-03-22T04:11:33.172Z,100.00
2023-03-22T04:14:14.016Z,100.00
2023-03-22T04:16:43.758Z,100.00
2023-03-22T04:19:10.951Z,100.00
2023-03-22T04:21:46.926Z,100.00
2023-03-22T04:24:18.334Z,100.00
2023-03-22T04:26:48.280Z,100.00
2023-03-22T04:29:23.454Z,100.00
2023-03-22T04:32:19.676Z,100.00
2023-03-22T04:34:55.422Z,100.00
2023-03-22T04:37:31.200Z,100.00
2023-03-22T04:40:07.033Z,100.00
2023-03-22T04:42:34.827Z,100.00
2023-03-22T04:45:02.894Z,100.00
2023-03-22T04:47:33.338Z,100.00
2023-03-22T04:50:00.074Z,100.00
2023-03-22T04:52:28.721Z,100.00
2023-03-22T04:54:57.936Z,100.00
2023-03-22T04:57:40.469Z,100.00
2023-03-22T05:00:08.793Z,100.00
2023-03-22T05:02:41.039Z,100.00
2023-03-22T05:05:15.068Z,100.00
2023-03-22T05:07:41.627Z,100.00
2023-03-22T05:10:23.830Z,100.00
2023-03-22T05:12:51.670Z,100.00
2023-03-22T05:15:22.304Z,100.00
2023-03-22T05:17:58.167Z,100.00
2023-03-22T05:20:26.039Z,100.00
2023-03-22T05:22:52.610Z,100.00
2023-03-22T05:25:19.198Z,100.00
2023-03-22T05:27:45.898Z,100.00
2023-03-22T05:30:15.692Z,100.00
2023-03-22T05:32:42.406Z,100.00
2023-03-22T05:35:12.202Z,100.00
2023-03-22T05:37:46.017Z,100.00
2023-03-22T05:40:16.085Z,100.00
2023-03-22T05:42:51.673Z,100.00
2023-03-22T05:45:19.489Z,100.00
2023-03-22T05:47:55.534Z,100.00
2023-03-22T05:50:23.569Z,100.00
2023-03-22T05:52:51.033Z,100.00
2023-03-22T05:55:18.232Z,100.00
2023-03-22T05:57:47.401Z,100.00
2023-03-22T06:00:16.104Z,100.00
2023-03-22T06:02:52.613Z,100.00
2023-03-22T06:05:19.245Z,100.00
2023-03-22T06:07:48.835Z,100.00
2023-03-22T06:10:15.684Z,100.00
2023-03-22T06:12:43.995Z,100.00
2023-03-22T06:15:14.916Z,100.00
2023-03-22T06:17:44.356Z,100.00
2023-03-22T06:20:15.090Z,100.00
2023-03-22T06:22:42.707Z,100.00
2023-03-22T06:25:12.055Z,100.00
2023-03-22T06:27:42.212Z,100.00
2023-03-22T06:30:09.518Z,100.00
2023-03-22T06:32:36.152Z,100.00
2023-03-22T06:35:05.866Z,100.00
2023-03-22T06:37:35.684Z,100.00
2023-03-22T06:40:07.208Z,100.00
2023-03-22T06:42:34.970Z,100.00
2023-03-22T06:45:01.619Z,100.00
2023-03-22T06:47:35.335Z,100.00
2023-03-22T06:50:16.833Z,100.00
2023-03-22T06:53:11.176Z,100.00
2023-03-22T06:55:50.753Z,99.94
2023-03-22T06:58:19.307Z,99.01
2023-03-22T07:00:48.622Z,99.11
2023-03-22T07:03:18.258Z,98.90
2023-03-22T07:05:44.784Z,98.83
2023-03-22T07:08:11.478Z,99.17
2023-03-22T07:10:42.019Z,98.63
2023-03-22T07:13:13.044Z,100.00
2023-03-22T07:15:47.950Z,98.58
2023-03-22T07:19:52.483Z,100.00
2023-03-22T07:21:10.450Z,100.00
2023-03-22T07:23:42.703Z,97.89
2023-03-22T07:26:14.443Z,97.53
2023-03-22T07:28:43.842Z,97.28
2023-03-22T07:31:16.370Z,95.90
2023-03-22T07:33:48.777Z,96.54
2023-03-22T07:36:21.432Z,93.65
2023-03-22T07:38:47.961Z,93.61
2023-03-22T07:41:14.531Z,93.77
2023-03-22T07:43:53.144Z,89.53
2023-03-22T07:46:21.947Z,87.78
2023-03-22T07:48:48.774Z,87.46
2023-03-22T07:51:17.677Z,85.14
2023-03-22T07:53:47.261Z,84.54
2023-03-22T07:56:13.990Z,86.24
2023-03-22T07:58:52.620Z,83.02
2023-03-22T08:01:20.497Z,85.98
2023-03-22T08:03:47.118Z,83.25
2023-03-22T08:06:13.888Z,79.41
2023-03-22T08:08:41.773Z,79.27
2023-03-22T08:11:09.092Z,78.27
2023-03-22T08:13:50.252Z,78.36
2023-03-22T08:16:19.673Z,81.07
2023-03-22T08:18:55.632Z,78.76
2023-03-22T08:21:26.070Z,77.08
2023-03-22T08:24:01.326Z,77.67
2023-03-22T08:26:31.106Z,77.97
2023-03-22T08:29:02.050Z,78.74
2023-03-22T08:31:36.137Z,76.93
2023-03-22T08:34:08.807Z,77.08
2023-03-22T08:36:40.251Z,77.35
2023-03-22T08:39:15.368Z,77.26
2023-03-22T08:41:51.147Z,77.46
2023-03-22T08:44:20.488Z,75.58
2023-03-22T08:46:56.463Z,75.51
2023-03-22T08:49:42.970Z,75.93
2023-03-22T08:52:09.748Z,76.58
2023-03-22T08:54:39.774Z,76.61
2023-03-22T08:57:06.486Z,77.53
2023-03-22T08:59:33.021Z,75.98
2023-03-22T09:02:02.700Z,76.03
2023-03-22T09:04:42.605Z,75.83
2023-03-22T09:07:13.075Z,75.84
2023-03-22T09:09:39.709Z,75.65
2023-03-22T09:12:13.859Z,74.51
2023-03-22T09:14:44.652Z,75.02
2023-03-22T09:17:14.150Z,74.86
2023-03-22T09:19:40.879Z,75.93
2023-03-22T09:22:10.366Z,76.44
2023-03-22T09:24:39.806Z,78.24
2023-03-22T09:27:08.903Z,79.21
2023-03-22T09:29:35.588Z,79.57
2023-03-22T09:32:05.134Z,78.70
2023-03-22T09:34:37.399Z,78.46
2023-03-22T09:37:03.920Z,77.67
2023-03-22T09:39:30.458Z,78.45
2023-03-22T09:42:01.095Z,79.06
2023-03-22T09:44:59.625Z,77.35
2023-03-22T09:47:45.285Z,77.29
2023-03-22T09:50:35.313Z,75.78
2023-03-22T09:53:02.262Z,76.93
2023-03-22T09:55:49.661Z,78.56
2023-03-22T09:58:28.601Z,76.64
2023-03-22T10:01:04.409Z,77.05
2023-03-22T10:04:05.947Z,77.17
2023-03-22T10:06:35.204Z,76.27
2023-03-22T10:09:23.059Z,76.76
2023-03-22T10:12:16.266Z,76.29
2023-03-22T10:15:08.032Z,77.49
2023-03-22T10:17:48.036Z,78.28
2023-03-22T10:20:47.422Z,78.57
2023-03-22T10:23:44.228Z,78.72
2023-03-22T10:26:31.912Z,75.48
2023-03-22T10:29:43.963Z,75.96
2023-03-22T10:32:54.736Z,77.57
2023-03-22T10:35:23.106Z,77.46
2023-03-22T10:37:51.920Z,76.26
2023-03-22T10:40:37.626Z,74.50
2023-03-22T10:43:47.909Z,74.74
2023-03-22T10:46:42.349Z,75.03
2023-03-22T10:49:27.086Z,75.13
2023-03-22T10:52:04.477Z,75.25
2023-03-22T10:54:36.218Z,74.75
2023-03-22T10:57:06.028Z,75.18
2023-03-22T11:00:01.314Z,75.40
2023-03-22T11:02:30.813Z,74.63
2023-03-22T11:05:00.319Z,73.71
2023-03-22T11:07:45.508Z,73.61
2023-03-22T11:10:33.067Z,69.91
2023-03-22T11:13:09.269Z,69.65
2023-03-22T11:15:42.403Z,68.14
2023-03-22T11:18:15.558Z,66.76
2023-03-22T11:20:56.038Z,66.66
2023-03-22T11:23:32.260Z,66.47
2023-03-22T11:26:06.706Z,65.80
2023-03-22T11:28:36.424Z,64.39
2023-03-22T11:31:10.520Z,65.00
2023-03-22T11:33:38.146Z,64.61
2023-03-22T11:39:07.970Z,65.17
2023-03-22T11:41:47.062Z,66.47
2023-03-22T11:44:27.556Z,66.90
2023-03-22T11:47:02.317Z,66.07
2023-03-22T11:49:42.756Z,65.41
2023-03-22T11:52:23.280Z,66.67
2023-03-22T11:54:51.268Z,65.99
2023-03-22T11:57:25.908Z,66.00
2023-03-22T12:00:12.624Z,65.19
2023-03-22T12:02:46.360Z,65.25
2023-03-22T12:05:24.880Z,66.96
2023-03-22T12:08:23.111Z,67.07
2023-03-22T12:11:01.325Z,66.63
2023-03-22T12:14:00.695Z,65.75
2023-03-22T12:16:32.913Z,65.38
2023-03-22T12:19:07.691Z,64.19
2023-03-22T12:21:34.874Z,64.25
2023-03-22T12:24:03.596Z,59.87
2023-03-22T12:26:35.216Z,63.63
2023-03-22T12:29:06.934Z,54.70
2023-03-22T12:31:43.089Z,56.33
2023-03-22T12:34:17.529Z,59.32
2023-03-22T12:36:51.413Z,58.53
2023-03-22T12:40:38.878Z,57.11
2023-03-22T12:43:56.097Z,57.60
2023-03-22T12:46:45.053Z,59.72
2023-03-22T12:49:41.474Z,60.81
2023-03-22T12:52:45.965Z,60.11
2023-03-22T12:55:43.839Z,61.00
2023-03-22T12:58:21.911Z,58.54
2023-03-22T13:01:11.726Z,58.14
2023-03-22T13:04:27.719Z,58.06
2023-03-22T13:06:56.917Z,58.31
2023-03-22T13:09:32.540Z,59.74
2023-03-22T13:12:18.456Z,59.13
2023-03-22T13:15:00.427Z,58.78
2023-03-22T13:17:32.785Z,58.22
2023-03-22T13:20:10.628Z,59.00
2023-03-22T13:22:52.590Z,58.39
2023-03-22T13:25:26.420Z,58.61
2023-03-22T13:28:29.349Z,58.70
2023-03-22T13:31:00.965Z,59.16
2023-03-22T13:33:45.717Z,58.92
2023-03-22T13:36:30.221Z,58.91
2023-03-22T13:39:09.977Z,55.75
2023-03-22T13:41:47.477Z,59.03
2023-03-22T13:44:23.474Z,58.02
2023-03-22T13:46:59.542Z,56.80
2023-03-22T13:49:47.046Z,54.49
2023-03-22T13:52:25.535Z,58.19
2023-03-22T13:54:56.818Z,58.78
2023-03-22T13:57:46.466Z,58.24
2023-03-22T14:00:46.345Z,58.08
2023-03-22T14:03:26.241Z,54.22
2023-03-22T14:09:12.840Z,55.15
2023-03-22T14:11:47.504Z,55.89
2023-03-22T14:14:37.998Z,56.62
2023-03-22T14:17:39.824Z,58.50
2023-03-22T14:20:17.563Z,58.32
2023-03-22T14:54:03.425Z,59.65
2023-03-22T14:56:37.496Z,58.93
2023-03-22T14:59:15.173Z,56.01
2023-03-22T15:01:58.437Z,56.33
2023-03-22T15:04:25.563Z,58.33
2023-03-22T15:07:02.875Z,58.79
2023-03-22T15:09:33.300Z,57.83
2023-03-22T15:12:06.503Z,57.25
2023-03-22T15:14:36.045Z,56.60
2023-03-22T15:17:16.795Z,55.89
2023-03-22T15:20:18.065Z,56.21
2023-03-22T15:23:15.435Z,56.47
2023-03-22T15:26:20.267Z,54.71
2023-03-22T15:28:54.194Z,54.00
2023-03-22T15:31:49.965Z,52.63
2023-03-22T15:34:44.641Z,52.50
2023-03-22T15:37:16.703Z,53.13
2023-03-22T15:39:47.883Z,51.16
2023-03-22T15:42:36.344Z,50.95
2023-03-22T15:45:13.147Z,52.11
2023-03-22T15:48:15.133Z,53.38
2023-03-22T15:51:02.648Z,53.37
2023-03-22T15:53:37.139Z,54.06
2023-03-22T15:56:04.174Z,53.52
2023-03-22T15:58:35.301Z,53.29
2023-03-22T16:01:16.199Z,54.35
2023-03-22T16:04:19.765Z,54.19
2023-03-22T16:06:51.907Z,54.02
2023-03-22T16:09:23.368Z,53.92
2023-03-22T16:11:50.965Z,53.93
2023-03-22T16:14:18.892Z,53.60
2023-03-22T16:16:48.233Z,52.84
2023-03-22T16:19:15.440Z,53.93
2023-03-22T16:21:48.459Z,54.72
2023-03-22T16:24:31.192Z,54.91
2023-03-22T16:27:13.018Z,55.19
2023-03-22T16:29:42.574Z,54.83
2023-03-22T16:32:30.587Z,55.02
2023-03-22T16:35:00.557Z,54.51
2023-03-22T16:37:43.614Z,54.89
2023-03-22T16:40:29.667Z,55.19
2023-03-22T16:42:58.121Z,55.71
2023-03-22T16:45:36.201Z,56.32
2023-03-22T16:48:03.170Z,56.51
2023-03-22T16:50:45.341Z,56.52
2023-03-22T16:53:23.393Z,57.03
2023-03-22T16:55:50.252Z,57.69
2023-03-22T16:58:18.496Z,58.29
2023-03-22T17:00:54.185Z,59.26
2023-03-22T17:06:02.547Z,60.47
2023-03-22T17:08:34.094Z,61.89
2023-03-22T17:11:09.263Z,61.73
2023-03-22T17:13:36.117Z,62.87
2023-03-22T17:16:03.250Z,63.10
2023-03-22T17:18:34.010Z,63.46
2023-03-22T17:21:06.508Z,64.05
2023-03-22T17:23:38.230Z,64.58
2023-03-22T17:26:07.533Z,65.41
2023-03-22T17:28:49.752Z,65.23
2023-03-22T17:31:19.520Z,65.87
2023-03-22T17:33:57.435Z,65.67
2023-03-22T17:36:27.516Z,66.68
2023-03-22T17:39:13.104Z,66.45
2023-03-22T17:41:48.966Z,66.90
2023-03-22T17:44:21.676Z,66.37
2023-03-22T17:47:21.706Z,66.77
2023-03-22T17:49:39.249Z,67.57
2023-03-22T17:52:17.597Z,68.10
2023-03-22T17:55:16.084Z,68.21
2023-03-22T18:00:22.133Z,68.23
2023-03-22T18:02:52.716Z,68.36
2023-03-22T18:05:34.011Z,69.04
2023-03-22T18:08:26.456Z,69.05
2023-03-22T18:11:00.450Z,69.15
2023-03-22T18:13:39.732Z,70.16
2023-03-22T18:16:13.288Z,71.06
2023-03-22T18:18:40.176Z,70.92
2023-03-22T18:21:18.361Z,72.02
2023-03-22T18:23:45.277Z,72.08
2023-03-22T18:26:29.407Z,72.91
2023-03-22T18:28:57.376Z,73.85
2023-03-22T18:31:26.938Z,73.16
2023-03-22T18:33:53.666Z,74.12
2023-03-22T18:36:38.883Z,74.82
2023-03-22T18:39:49.672Z,76.20
2023-03-22T18:42:16.722Z,77.46
2023-03-22T18:44:46.560Z,78.25
2023-03-22T18:47:13.228Z,78.82
2023-03-22T18:49:49.847Z,79.76
2023-03-22T18:52:39.944Z,79.62
2023-03-22T18:55:21.588Z,80.63
2023-03-22T18:57:52.324Z,81.74
2023-03-22T19:00:24.346Z,82.53
2023-03-22T19:02:51.242Z,83.00
2023-03-22T19:05:18.400Z,83.21
2023-03-22T19:08:02.252Z,83.73
2023-03-22T19:10:38.112Z,85.16
2023-03-22T19:13:05.179Z,84.87
2023-03-22T19:18:09.262Z,86.11
2023-03-22T19:20:40.266Z,86.59
2023-03-22T19:23:07.858Z,86.77
2023-03-22T19:25:34.779Z,86.52
2023-03-22T19:28:06.842Z,87.04
2023-03-22T19:30:34.080Z,86.87
2023-03-22T19:35:53.611Z,87.66
2023-03-22T19:38:23.495Z,88.26
2023-03-22T19:41:40.520Z,88.63
2023-03-22T19:43:52.390Z,88.94
2023-03-22T19:46:22.308Z,88.91
2023-03-22T19:48:51.722Z,89.87
2023-03-22T19:51:37.828Z,90.18
2023-03-22T19:54:27.789Z,90.40
2023-03-22T19:57:03.360Z,90.74
2023-03-22T20:02:03.034Z,91.20
2023-03-22T20:04:32.468Z,91.46
2023-03-22T20:07:01.886Z,91.84
2023-03-22T20:09:28.699Z,91.67
2023-03-22T20:11:55.421Z,92.07
2023-03-22T20:14:22.132Z,93.45
2023-03-22T20:16:51.599Z,92.70
2023-03-22T20:19:29.199Z,93.44
2023-03-22T20:21:59.011Z,93.31
2023-03-22T20:24:30.068Z,92.52
2023-03-22T20:26:58.910Z,92.07
2023-03-22T20:29:25.602Z,93.21
2023-03-22T20:31:52.299Z,92.83
2023-03-22T20:34:18.996Z,91.77
2023-03-22T20:36:45.925Z,92.70
2023-03-22T20:39:14.968Z,92.30
2023-03-22T20:41:41.637Z,92.61
2023-03-22T20:44:09.420Z,93.31
2023-03-22T20:46:38.688Z,93.67
2023-03-22T20:49:05.340Z,94.00
2023-03-22T20:54:12.709Z,94.24
2023-03-22T20:56:40.859Z,95.09
2023-03-22T20:59:19.170Z,94.54
2023-03-22T21:04:36.704Z,94.23
2023-03-22T21:07:21.432Z,94.89
2023-03-22T21:09:48.069Z,93.36
2023-03-22T21:12:17.016Z,92.32
2023-03-22T21:14:44.199Z,92.21
2023-03-22T21:17:11.447Z,90.22
2023-03-22T21:19:44.288Z,90.62
2023-03-22T21:22:10.993Z,90.36
2023-03-22T21:25:08.272Z,90.70
2023-03-22T21:27:35.751Z,92.30
2023-03-22T21:30:34.640Z,94.13
2023-03-22T21:33:04.675Z,94.76
2023-03-22T21:35:35.348Z,95.75
2023-03-22T21:38:05.998Z,96.14
2023-03-22T21:40:32.885Z,97.03
2023-03-22T21:43:10.200Z,96.88
2023-03-22T21:45:48.146Z,97.22
2023-03-22T21:48:19.035Z,97.26
2023-03-22T21:50:55.478Z,96.95
2023-03-22T21:53:26.642Z,95.30
2023-03-22T21:55:56.340Z,95.22
2023-03-22T21:58:23.284Z,95.41
2023-03-22T22:00:54.600Z,95.83
2023-03-22T22:03:21.409Z,95.71
2023-03-22T22:06:04.613Z,94.73
2023-03-22T22:08:31.264Z,93.48
2023-03-22T22:11:00.429Z,93.89
2023-03-22T22:13:28.237Z,92.90
2023-03-22T22:16:00.145Z,92.05
2023-03-22T22:18:27.280Z,91.89
2023-03-22T22:20:55.913Z,90.78
2023-03-22T22:23:28.907Z,89.97
2023-03-22T22:26:03.195Z,88.60
2023-03-22T22:28:29.999Z,88.84
2023-03-22T22:30:59.927Z,86.21
2023-03-22T22:33:26.669Z,85.25
2023-03-22T22:35:53.426Z,84.31
2023-03-22T22:38:22.562Z,83.69
2023-03-22T22:40:53.862Z,83.98
2023-03-22T22:43:25.966Z,83.80
2023-03-22T22:45:56.802Z,84.33
2023-03-22T22:48:26.849Z,84.07
2023-03-22T22:51:11.830Z,84.32
2023-03-22T22:53:39.228Z,84.05
2023-03-22T22:56:08.473Z,84.26
2023-03-22T22:58:40.644Z,85.63
2023-03-22T23:01:12.349Z,86.93
2023-03-22T23:03:46.619Z,87.48
2023-03-22T23:06:21.795Z,88.46
2023-03-22T23:08:54.889Z,88.79
2023-03-22T23:11:26.495Z,88.64
2023-03-22T23:13:53.521Z,90.18
2023-03-22T23:16:32.975Z,89.88
2023-03-22T23:19:09.799Z,89.73
2023-03-22T23:21:40.820Z,90.37
2023-03-22T23:24:14.190Z,91.26
2023-03-22T23:26:43.792Z,90.86
2023-03-22T23:29:12.678Z,90.57
2023-03-22T23:31:51.035Z,90.38
2023-03-22T23:34:18.598Z,90.31
2023-03-22T23:36:46.276Z,90.75
2023-03-22T23:39:12.961Z,91.60
2023-03-22T23:41:39.791Z,92.12
2023-03-22T23:44:25.968Z,92.57
2023-03-22T23:46:54.004Z,92.73
2023-03-22T23:49:23.608Z,92.77
2023-03-22T23:51:57.155Z,93.27
2023-03-22T23:54:25.374Z,92.96
2023-03-22T23:57:01.229Z,93.87
2023-03-22T23:59:28.147Z,94.78
